Humidity-temperature Sensor

Selected Measurement Type: Air Temperature

 
Air Temperature [°C]     6 entries per hour
Showing data from 4/12/2016 (00:00:00 Z) to 4/11/2016 (00:01:00 Z)
Previous Next [ Day | 3-Days | 7-Days ]
First Last
Prev [ Day | 3-Days | 7-Days ] Next
First Last

Start Time:     :
End Time:     :     
Time (in GMT) :00 :50 :40 :30 :20 :10
Previous Next [ Day | 3-Days | 7-Days ]
First Last
Prev [ Day | 3-Days | 7-Days ] Next
First Last


123 => good data
MM => data is determined as missing
-- => data not received/configured
Back to Top Back to Top
4/12/2016 00:00 to 23:10 28.77 28.58 28.60 28.57 28.66 28.55
4/11/2016 23:00 to 22:10 28.50 28.55 28.57 28.42 28.37 28.43
4/11/2016 22:00 to 21:10 28.56 28.45 28.38 28.49 28.39 28.23
4/11/2016 21:00 to 20:10 28.25 28.44 28.34 28.32 28.42 28.37
4/11/2016 20:00 to 19:10 28.29 28.33 28.19 28.25 28.19 28.30
4/11/2016 19:00 to 18:10 28.27 28.28 28.19 28.14 28.18 28.08
4/11/2016 18:00 to 17:10 27.88 27.89 28.16 28.28 28.22 28.22
4/11/2016 17:00 to 16:10 28.25 28.30 28.33 28.31 28.13 28.21
4/11/2016 16:00 to 15:10 28.13 28.12 28.24 28.34 27.95 28.16
4/11/2016 15:00 to 14:10 28.38 28.51 28.30 28.21 28.20 28.14
4/11/2016 14:00 to 13:10 27.90 27.88 27.87 27.82 27.81 27.75
4/11/2016 13:00 to 12:10 27.76 27.71 27.73 27.78 27.78 27.77
4/11/2016 12:00 to 11:10 27.76 27.91 27.89 27.76 27.82 27.94
4/11/2016 11:00 to 10:10 27.82 27.88 27.82 27.90 27.84 27.82
4/11/2016 10:00 to 9:10 27.88 27.80 27.90 27.96 28.03 28.37
4/11/2016 09:00 to 8:10 28.14 28.15 28.04 28.19 28.10 28.11
4/11/2016 08:00 to 7:10 28.15 28.14 28.12 28.02 28.03 28.10
4/11/2016 07:00 to 6:10 28.17 28.20 28.23 28.29 28.14 28.30
4/11/2016 06:00 to 5:10 28.32 28.27 28.34 28.44 28.31 28.45
4/11/2016 05:00 to 4:10 28.57 28.54 28.48 28.58 28.50 28.51
4/11/2016 04:00 to 3:10 28.48 28.53 28.43 28.52 28.48 28.46
4/11/2016 03:00 to 2:10 28.54 28.48 28.41 28.41 28.46 28.50
4/11/2016 02:00 to 1:10 28.43 28.48 28.35 28.41 28.40 28.35
4/11/2016 01:00 to 0:10 28.38 28.63 28.50 28.47 28.57 28.66